sensor_id;sensor_type;location;lat;lon;timestamp;pressure;altitude;pressure_sealevel;temperature;humidity
25869;BME280;13688;53.154;18.136;2023-04-30T17:16:24;101431.37;;;13.75;30.85
25869;BME280;13688;53.154;18.136;2023-04-30T17:21:48;101430.01;;;14.03;31.15
25869;BME280;13688;53.154;18.136;2023-04-30T17:27:11;101435.84;;;13.30;32.26
25869;BME280;13688;53.154;18.136;2023-04-30T17:32:33;101439.73;;;13.84;32.02
25869;BME280;13688;53.154;18.136;2023-04-30T17:37:56;101431.42;;;13.29;32.73
25869;BME280;13688;53.154;18.136;2023-04-30T17:43:18;101445.20;;;12.54;34.36
25869;BME280;13688;53.154;18.136;2023-04-30T17:48:41;101452.72;;;11.51;36.37
25869;BME280;13688;53.154;18.136;2023-04-30T17:54:04;101451.52;;;10.89;38.10
25869;BME280;13688;53.154;18.136;2023-04-30T17:59:28;101448.37;;;10.43;39.53
25869;BME280;13688;53.154;18.136;2023-04-30T18:04:51;101454.64;;;10.15;40.63
25869;BME280;13688;53.154;18.136;2023-04-30T18:10:14;101465.28;;;10.02;41.13
25869;BME280;13688;53.154;18.136;2023-04-30T18:15:36;101474.41;;;9.71;42.19
25869;BME280;13688;53.154;18.136;2023-04-30T18:21:00;101470.77;;;9.58;42.93
25869;BME280;13688;53.154;18.136;2023-04-30T18:26:26;101481.67;;;9.41;43.58
25869;BME280;13688;53.154;18.136;2023-04-30T18:31:49;101481.81;;;9.24;43.85
25869;BME280;13688;53.154;18.136;2023-04-30T18:37:12;101483.70;;;9.07;44.09
25869;BME280;13688;53.154;18.136;2023-04-30T18:42:35;101487.28;;;8.92;44.63
25869;BME280;13688;53.154;18.136;2023-04-30T18:47:58;101491.55;;;8.80;44.94
25869;BME280;13688;53.154;18.136;2023-04-30T18:53:24;101494.52;;;8.60;45.46
25869;BME280;13688;53.154;18.136;2023-04-30T18:58:48;101495.55;;;8.42;45.86
25869;BME280;13688;53.154;18.136;2023-04-30T19:04:25;101492.47;;;8.16;46.30
25869;BME280;13688;53.154;18.136;2023-04-30T19:10:49;101498.33;;;7.91;46.63
25869;BME280;13688;53.154;18.136;2023-04-30T19:16:12;101508.27;;;7.72;46.83
25869;BME280;13688;53.154;18.136;2023-04-30T19:21:35;101520.02;;;7.52;47.25
25869;BME280;13688;53.154;18.136;2023-04-30T19:26:58;101517.60;;;7.30;47.39
25869;BME280;13688;53.154;18.136;2023-04-30T19:32:20;101525.70;;;7.11;48.21
25869;BME280;13688;53.154;18.136;2023-04-30T19:37:43;101524.75;;;6.95;48.52
25869;BME280;13688;53.154;18.136;2023-04-30T19:43:06;101522.91;;;6.78;48.80
25869;BME280;13688;53.154;18.136;2023-04-30T19:48:29;101530.61;;;6.84;48.13
25869;BME280;13688;53.154;18.136;2023-04-30T19:53:51;101532.68;;;6.60;48.91
25869;BME280;13688;53.154;18.136;2023-04-30T19:59:14;101531.59;;;6.46;49.46
25869;BME280;13688;53.154;18.136;2023-04-30T20:04:36;101542.08;;;6.31;49.66
25869;BME280;13688;53.154;18.136;2023-04-30T20:09:59;101554.92;;;6.23;49.95
25869;BME280;13688;53.154;18.136;2023-04-30T20:15:22;101555.84;;;6.03;50.37
25869;BME280;13688;53.154;18.136;2023-04-30T20:20:45;101550.20;;;5.91;50.75
25869;BME280;13688;53.154;18.136;2023-04-30T20:26:07;101556.85;;;5.81;51.20
25869;BME280;13688;53.154;18.136;2023-04-30T20:31:30;101565.27;;;5.71;51.36
25869;BME280;13688;53.154;18.136;2023-04-30T20:36:52;101563.39;;;5.53;51.70
25869;BME280;13688;53.154;18.136;2023-04-30T20:42:15;101566.70;;;5.38;52.04
25869;BME280;13688;53.154;18.136;2023-04-30T20:47:42;101565.75;;;5.18;52.50
25869;BME280;13688;53.154;18.136;2023-04-30T20:53:02;101579.59;;;5.06;52.87
25869;BME280;13688;53.154;18.136;2023-04-30T20:58:24;101584.57;;;4.94;53.26
25869;BME280;13688;53.154;18.136;2023-04-30T21:03:47;101581.44;;;4.82;53.50
25869;BME280;13688;53.154;18.136;2023-04-30T21:09:10;101588.56;;;4.60;54.39
25869;BME280;13688;53.154;18.136;2023-04-30T21:14:32;101589.45;;;4.37;55.52
25869;BME280;13688;53.154;18.136;2023-04-30T21:19:54;101592.97;;;4.14;56.40
25869;BME280;13688;53.154;18.136;2023-04-30T21:25:17;101602.55;;;3.95;57.38
25869;BME280;13688;53.154;18.136;2023-04-30T21:30:40;101609.63;;;3.71;58.37
25869;BME280;13688;53.154;18.136;2023-04-30T21:36:03;101612.53;;;3.38;59.68
25869;BME280;13688;53.154;18.136;2023-04-30T21:41:26;101612.84;;;3.29;60.88
25869;BME280;13688;53.154;18.136;2023-04-30T21:46:49;101620.03;;;3.52;60.19
25869;BME280;13688;53.154;18.136;2023-04-30T21:52:12;101625.29;;;3.54;59.58
25869;BME280;13688;53.154;18.136;2023-04-30T21:57:35;101612.72;;;3.59;59.44
25869;BME280;13688;53.154;18.136;2023-04-30T22:02:57;101618.84;;;3.61;59.58
25869;BME280;13688;53.154;18.136;2023-04-30T22:08:19;101622.75;;;3.51;59.70
25869;BME280;13688;53.154;18.136;2023-04-30T22:13:42;101625.83;;;3.38;60.10
25869;BME280;13688;53.154;18.136;2023-04-30T22:19:04;101629.57;;;3.05;60.88
25869;BME280;13688;53.154;18.136;2023-04-30T22:24:27;101636.23;;;2.33;62.53
25869;BME280;13688;53.154;18.136;2023-04-30T22:29:49;101643.54;;;1.92;65.34
25869;BME280;13688;53.154;18.136;2023-04-30T22:35:14;101645.17;;;1.65;67.11
25869;BME280;13688;53.154;18.136;2023-04-30T22:40:38;101645.42;;;1.54;68.42
25869;BME280;13688;53.154;18.136;2023-04-30T22:46:00;101641.38;;;1.73;69.33
25869;BME280;13688;53.154;18.136;2023-04-30T22:51:23;101641.13;;;1.83;69.45
25869;BME280;13688;53.154;18.136;2023-04-30T22:56:46;101636.50;;;1.91;69.08
25869;BME280;13688;53.154;18.136;2023-04-30T23:02:08;101639.45;;;1.80;69.14
25869;BME280;13688;53.154;18.136;2023-04-30T23:07:31;101640.93;;;1.90;69.52
25869;BME280;13688;53.154;18.136;2023-04-30T23:13:04;101643.63;;;1.89;68.80
25869;BME280;13688;53.154;18.136;2023-04-30T23:18:27;101644.03;;;1.73;69.62
25869;BME280;13688;53.154;18.136;2023-04-30T23:23:50;101632.58;;;1.39;69.82
25869;BME280;13688;53.154;18.136;2023-04-30T23:29:12;101638.50;;;1.13;70.96
25869;BME280;13688;53.154;18.136;2023-04-30T23:34:35;101636.83;;;0.72;71.89
25869;BME280;13688;53.154;18.136;2023-04-30T23:39:58;101632.21;;;0.41;73.03
25869;BME280;13688;53.154;18.136;2023-04-30T23:45:22;101631.72;;;0.22;74.53
25869;BME280;13688;53.154;18.136;2023-04-30T23:50:44;101634.44;;;0.19;75.82
25869;BME280;13688;53.154;18.136;2023-04-30T23:56:17;101622.05;;;0.21;76.56
